Stovall, North Carolina
Current Conditions -  °F | °C
As of 12:55 PM on Friday 24 Oct 2014 (Local Time) from KHNZ Reporting Station
Clear Clear  
Wind Chill: 66°   Ceiling: Unl
Heat Index: 66°   Visibility: 10mi
Dew Point: 42°   Wind: 0mph
Humidity: 41%   Direction: NA
Pressure: 30.02"   Gusts: NA
Location:  36.45°N, 78.57°W
Report Text: KHNZ 241655Z AUTO 00000KT 10SM CLR 19/05 A3002 RMK AO2 T01880054
Loading
Personal Weather Stations






























Interactive Weather Map
Tropical Storm Tracking
New forecast layout! Learn more

10-Day Weather Forecast

Advertisements
Track Severe Weather on mobile